createdAt,value
2024-03-12T00:01:01.811Z,100890.72
2024-03-12T00:03:28.976Z,100891.69
2024-03-12T00:06:00.783Z,100887.28
2024-03-12T00:08:30.918Z,100887.78
2024-03-12T00:10:57.403Z,100887.09
2024-03-12T00:13:24.473Z,100890.41
2024-03-12T00:15:51.082Z,100891.50
2024-03-12T00:18:17.581Z,100894.00
2024-03-12T00:20:45.590Z,100897.59
2024-03-12T00:23:12.916Z,100898.56
2024-03-12T00:25:40.319Z,100897.13
2024-03-12T00:28:09.575Z,100894.06
2024-03-12T00:30:36.041Z,100892.63
2024-03-12T00:33:02.684Z,100905.00
2024-03-12T00:35:36.397Z,100910.03
2024-03-12T00:38:04.879Z,100906.34
2024-03-12T00:40:34.928Z,100906.81
2024-03-12T00:43:04.358Z,100909.78
2024-03-12T00:45:38.278Z,100908.28
2024-03-12T00:48:14.746Z,100915.88
2024-03-12T00:50:43.652Z,100925.25
2024-03-12T00:53:12.767Z,100924.06
2024-03-12T00:55:41.445Z,100933.47
2024-03-12T00:58:14.214Z,100929.78
2024-03-12T01:00:42.278Z,100929.91
2024-03-12T01:03:13.152Z,100929.78
2024-03-12T01:05:40.564Z,100920.03
2024-03-12T01:08:08.747Z,100914.22
2024-03-12T01:10:35.883Z,100924.69
2024-03-12T01:13:06.966Z,100931.47
2024-03-12T01:15:33.589Z,100928.69
2024-03-12T01:18:00.093Z,100926.34
2024-03-12T01:20:27.786Z,100921.72
2024-03-12T01:22:55.755Z,100922.28
2024-03-12T01:25:23.447Z,100927.91
2024-03-12T01:27:52.002Z,100928.97
2024-03-12T01:30:21.824Z,100928.34
2024-03-12T01:32:49.222Z,100928.59
2024-03-12T01:35:15.886Z,100936.47
2024-03-12T01:37:46.572Z,100945.50
2024-03-12T01:40:26.646Z,100947.63
2024-03-12T01:42:55.366Z,100950.34
2024-03-12T01:45:23.980Z,100948.81
2024-03-12T01:47:55.740Z,100956.56
2024-03-12T01:50:25.933Z,100960.81
2024-03-12T01:53:06.666Z,100953.69
2024-03-12T01:55:39.352Z,100955.34
2024-03-12T01:58:06.147Z,100951.66
2024-03-12T02:00:34.518Z,100955.84
2024-03-12T02:03:01.394Z,100958.56
2024-03-12T02:05:27.925Z,100952.84
2024-03-12T02:07:54.932Z,100957.00
2024-03-12T02:10:21.788Z,100956.06
2024-03-12T02:12:48.730Z,100957.03
2024-03-12T02:15:21.939Z,100959.50
2024-03-12T02:17:49.374Z,100959.25
2024-03-12T02:20:15.896Z,100959.75
2024-03-12T02:22:42.289Z,100968.47
2024-03-12T02:25:12.601Z,100960.94
2024-03-12T02:27:42.370Z,100957.88
2024-03-12T02:30:10.017Z,100961.91
2024-03-12T02:32:37.401Z,100957.06
2024-03-12T02:35:04.178Z,100966.31
2024-03-12T02:37:30.585Z,100962.50
2024-03-12T02:39:57.109Z,100970.13
2024-03-12T02:42:23.634Z,100975.00
2024-03-12T02:44:50.037Z,100973.69
2024-03-12T02:47:21.014Z,100966.41
2024-03-12T02:49:47.916Z,100973.09
2024-03-12T02:52:14.476Z,100968.41
2024-03-12T02:54:42.851Z,100976.06
2024-03-12T02:57:12.529Z,100971.03
2024-03-12T02:59:39.377Z,100974.13
2024-03-12T03:02:06.563Z,100978.16
2024-03-12T03:04:38.210Z,100971.84
2024-03-12T03:07:08.664Z,100976.00
2024-03-12T03:09:35.655Z,100967.19
2024-03-12T03:12:02.207Z,100968.63
2024-03-12T03:14:28.762Z,100965.06
2024-03-12T03:16:55.657Z,100967.69
2024-03-12T03:19:23.883Z,100966.59
2024-03-12T03:21:50.346Z,100963.72
2024-03-12T03:24:16.743Z,100969.69
2024-03-12T03:26:43.230Z,100969.69
2024-03-12T03:29:09.671Z,100969.81
2024-03-12T03:31:36.066Z,100966.72
2024-03-12T03:34:05.874Z,100964.22
2024-03-12T03:36:33.182Z,100972.41
2024-03-12T03:38:59.873Z,100975.66
2024-03-12T03:41:26.477Z,100976.47
2024-03-12T03:43:52.874Z,100982.63
2024-03-12T03:46:19.772Z,100981.53
2024-03-12T03:48:46.226Z,100991.78
2024-03-12T03:51:12.695Z,100990.00
2024-03-12T03:53:41.416Z,100994.03
2024-03-12T03:56:16.433Z,100985.94
2024-03-12T03:58:44.536Z,100993.69
2024-03-12T04:01:11.801Z,100987.34
2024-03-12T04:03:40.162Z,100992.44
2024-03-12T04:06:08.182Z,101000.19
2024-03-12T04:08:36.053Z,100995.41
2024-03-12T04:11:02.707Z,101005.53
2024-03-12T04:13:29.180Z,101003.22
2024-03-12T04:15:56.576Z,100995.25
2024-03-12T04:18:23.896Z,101008.81
2024-03-12T04:20:52.254Z,101010.47
2024-03-12T04:23:18.673Z,101013.91
2024-03-12T04:25:45.153Z,101013.78
2024-03-12T04:28:16.910Z,101012.81
2024-03-12T04:30:43.781Z,101021.28
2024-03-12T04:33:10.335Z,101019.38
2024-03-12T04:35:37.232Z,101025.72
2024-03-12T04:38:03.962Z,101022.38
2024-03-12T04:40:30.431Z,101015.34
2024-03-12T04:42:56.871Z,101014.50
2024-03-12T04:45:23.332Z,101012.81
2024-03-12T04:47:50.356Z,101014.63
2024-03-12T04:50:18.971Z,101015.72
2024-03-12T04:52:45.762Z,101020.56
2024-03-12T04:55:14.356Z,101018.66
2024-03-12T04:57:40.950Z,101023.91
2024-03-12T05:00:15.142Z,101026.66
2024-03-12T05:02:42.527Z,101027.75
2024-03-12T05:05:09.098Z,101031.56
2024-03-12T05:07:35.544Z,101034.91
2024-03-12T05:10:02.127Z,101032.28
2024-03-12T05:12:28.665Z,101037.78
2024-03-12T05:14:55.734Z,101043.16
2024-03-12T05:17:22.791Z,101048.16
2024-03-12T05:19:49.960Z,101048.88
2024-03-12T05:22:17.435Z,101055.66
2024-03-12T05:24:43.943Z,101058.13
2024-03-12T05:27:11.196Z,101063.16
2024-03-12T05:29:43.405Z,101062.19
2024-03-12T05:32:19.111Z,101061.81
2024-03-12T05:34:49.527Z,101072.19
2024-03-12T05:37:41.613Z,101069.56
2024-03-12T05:40:14.422Z,101074.94
2024-03-12T05:42:59.480Z,101076.97
2024-03-12T05:45:44.412Z,101082.09
2024-03-12T05:48:11.532Z,101083.88
2024-03-12T05:50:39.297Z,101088.16
2024-03-12T05:53:05.933Z,101090.41
2024-03-12T05:55:33.193Z,101095.44
2024-03-12T05:57:59.933Z,101092.53
2024-03-12T06:00:26.452Z,101103.59
2024-03-12T06:02:52.882Z,101104.09
2024-03-12T06:05:19.620Z,101104.66
2024-03-12T06:07:46.059Z,101103.44
2024-03-12T06:10:12.751Z,101112.03
2024-03-12T06:12:39.560Z,101117.97
2024-03-12T06:15:06.520Z,101121.19
2024-03-12T06:17:33.560Z,101117.72
2024-03-12T06:20:00.324Z,101117.59
2024-03-12T06:22:27.813Z,101123.44
2024-03-12T06:24:54.776Z,101129.13
2024-03-12T06:27:22.381Z,101141.16
2024-03-12T06:29:53.128Z,101141.38
2024-03-12T06:32:22.061Z,101137.78
2024-03-12T06:34:49.396Z,101141.25
2024-03-12T06:37:16.773Z,101141.69
2024-03-12T06:39:45.712Z,101142.38
2024-03-12T06:42:13.825Z,101145.59
2024-03-12T06:44:43.628Z,101147.03
2024-03-12T06:47:11.295Z,101142.59
2024-03-12T06:49:40.274Z,101146.50
2024-03-12T06:52:08.005Z,101154.81
2024-03-12T06:54:36.229Z,101148.06
2024-03-12T06:57:05.403Z,101155.03
2024-03-12T06:59:35.000Z,101157.38
2024-03-12T07:02:02.063Z,101154.25
2024-03-12T07:04:36.126Z,101158.13
2024-03-12T07:07:06.811Z,101162.19
2024-03-12T07:09:37.003Z,101166.19
2024-03-12T07:12:05.447Z,101171.59
2024-03-12T07:14:33.692Z,101171.31
2024-03-12T07:17:00.761Z,101166.50
2024-03-12T07:19:27.274Z,101171.53
2024-03-12T07:21:55.907Z,101173.47
2024-03-12T07:24:22.489Z,101174.75
2024-03-12T07:26:48.939Z,101170.56
2024-03-12T07:29:16.210Z,101179.19
2024-03-12T07:31:42.619Z,101188.59
2024-03-12T07:34:09.163Z,101187.19
2024-03-12T07:36:36.132Z,101192.88
2024-03-12T07:39:10.357Z,101191.34
2024-03-12T07:41:37.076Z,101193.28
2024-03-12T07:44:03.542Z,101200.09
2024-03-12T07:46:30.325Z,101207.97
2024-03-12T07:48:57.652Z,101207.84
2024-03-12T07:51:24.427Z,101210.47
2024-03-12T07:53:50.926Z,101206.34
2024-03-12T07:56:19.677Z,101210.38
2024-03-12T07:58:47.473Z,101216.47
2024-03-12T08:01:15.612Z,101211.78
2024-03-12T08:03:42.920Z,101209.47
2024-03-12T08:06:09.567Z,101219.41
2024-03-12T08:08:36.028Z,101218.81
2024-03-12T08:11:05.955Z,101223.25
2024-03-12T08:13:32.988Z,101223.41
2024-03-12T08:15:59.856Z,101226.03
2024-03-12T08:18:27.658Z,101229.63
2024-03-12T08:20:54.266Z,101228.00
2024-03-12T08:23:21.014Z,101229.53
2024-03-12T08:25:55.766Z,101233.00
2024-03-12T08:28:26.248Z,101242.88
2024-03-12T08:30:53.052Z,101242.22
2024-03-12T08:33:20.231Z,101241.72
2024-03-12T08:35:46.921Z,101247.13
2024-03-12T08:38:13.541Z,101250.94
2024-03-12T08:40:40.009Z,101249.25
2024-03-12T08:43:08.946Z,101247.59
2024-03-12T08:45:36.935Z,101251.75
2024-03-12T08:48:07.208Z,101248.06
2024-03-12T08:50:36.502Z,101251.00
2024-03-12T08:53:03.101Z,101258.66
2024-03-12T08:55:30.034Z,101255.91
2024-03-12T08:57:56.682Z,101262.88
2024-03-12T09:00:23.137Z,101265.94
2024-03-12T09:02:50.656Z,101257.06
2024-03-12T09:05:18.404Z,101266.88
2024-03-12T09:07:46.512Z,101264.69
2024-03-12T09:10:14.149Z,101272.13
2024-03-12T09:12:44.254Z,101276.59
2024-03-12T09:15:11.323Z,101265.81
2024-03-12T09:17:38.733Z,101275.53
2024-03-12T09:20:12.074Z,101275.38
2024-03-12T09:22:39.014Z,101275.22
2024-03-12T09:25:06.373Z,101281.13
2024-03-12T09:27:33.157Z,101276.50
2024-03-12T09:29:59.632Z,101282.69
2024-03-12T09:32:26.071Z,101275.69
2024-03-12T09:34:55.402Z,101270.53
2024-03-12T09:37:22.208Z,101274.72
2024-03-12T09:39:52.615Z,101263.84
2024-03-12T09:42:23.774Z,101269.41
2024-03-12T09:44:51.568Z,101263.16
2024-03-12T09:47:18.834Z,101270.19
2024-03-12T09:49:45.678Z,101276.22
2024-03-12T09:52:12.713Z,101270.59
2024-03-12T09:54:40.093Z,101283.53
2024-03-12T09:57:13.073Z,101274.13
2024-03-12T09:59:41.437Z,101273.94
2024-03-12T10:02:11.376Z,101278.59
2024-03-12T10:04:38.969Z,101273.91
2024-03-12T10:07:07.048Z,101276.50
2024-03-12T10:09:33.673Z,101291.13
2024-03-12T10:12:03.524Z,101286.72
2024-03-12T10:14:31.277Z,101295.25
2024-03-12T10:17:15.108Z,101291.25
2024-03-12T10:19:48.677Z,101295.06
2024-03-12T10:22:22.087Z,101305.13
2024-03-12T10:24:49.958Z,101297.69
2024-03-12T10:27:17.470Z,101297.53
2024-03-12T10:29:44.061Z,101297.88
2024-03-12T10:32:21.114Z,101290.91
2024-03-12T10:34:48.489Z,101300.53
2024-03-12T10:37:33.356Z,101297.22
2024-03-12T10:40:20.479Z,101298.88
2024-03-12T10:42:52.593Z,101306.13
2024-03-12T10:45:19.390Z,101306.59
2024-03-12T10:47:49.072Z,101293.03
2024-03-12T10:50:17.544Z,101303.88
2024-03-12T10:52:46.455Z,101302.06
2024-03-12T10:55:22.350Z,101300.22
2024-03-12T10:57:56.355Z,101303.75
2024-03-12T11:00:26.621Z,101305.09
2024-03-12T11:02:57.103Z,101300.78
2024-03-12T11:05:30.757Z,101304.19
2024-03-12T11:07:59.020Z,101311.47
2024-03-12T11:10:28.247Z,101316.59
2024-03-12T11:12:56.402Z,101308.53
2024-03-12T11:15:24.499Z,101314.56
2024-03-12T11:17:51.838Z,101312.97
2024-03-12T11:20:27.470Z,101315.13
2024-03-12T11:22:57.589Z,101309.44
2024-03-12T11:25:28.413Z,101312.09
2024-03-12T11:28:27.480Z,101309.16
2024-03-12T11:31:03.173Z,101313.47
2024-03-12T11:33:39.021Z,101308.00
2024-03-12T11:36:25.187Z,101319.97
2024-03-12T11:38:53.113Z,101309.22
2024-03-12T11:41:22.664Z,101306.66
2024-03-12T11:43:49.844Z,101314.72
2024-03-12T11:46:21.782Z,101311.13
2024-03-12T11:48:49.979Z,101307.81
2024-03-12T11:51:16.741Z,101312.94
2024-03-12T11:53:46.271Z,101312.28
2024-03-12T11:56:19.640Z,101302.34
2024-03-12T11:59:02.344Z,101311.38
2024-03-12T12:01:34.048Z,101310.19
2024-03-12T12:04:06.608Z,101314.66
2024-03-12T12:06:34.130Z,101303.06
2024-03-12T12:09:09.749Z,101308.97
2024-03-12T12:11:39.089Z,101309.72
2024-03-12T12:14:07.321Z,101318.25
2024-03-12T12:16:34.010Z,101310.66
2024-03-12T12:19:12.064Z,101315.09
2024-03-12T12:21:44.081Z,101309.22
2024-03-12T12:24:12.294Z,101311.94
2024-03-12T12:26:40.080Z,101308.31
2024-03-12T12:29:10.677Z,101307.00
2024-03-12T12:31:38.524Z,101316.78
2024-03-12T12:34:12.046Z,101313.03
2024-03-12T12:36:44.366Z,101315.81
2024-03-12T12:39:12.936Z,101315.41
2024-03-12T12:41:44.335Z,101320.53
2024-03-12T12:44:16.929Z,101316.53
2024-03-12T12:46:44.581Z,101316.69
2024-03-12T12:49:14.898Z,101318.63
2024-03-12T12:51:42.635Z,101317.59
2024-03-12T12:54:10.544Z,101317.63
2024-03-12T12:56:42.400Z,101322.34
2024-03-12T12:59:15.536Z,101324.19
2024-03-12T13:01:42.304Z,101315.47
2024-03-12T13:04:30.738Z,101321.66
2024-03-12T13:06:58.203Z,101325.97
2024-03-12T13:09:36.781Z,101326.47
2024-03-12T13:12:08.611Z,101335.81
2024-03-12T13:14:38.068Z,101336.72
2024-03-12T13:17:06.584Z,101343.44
2024-03-12T13:19:33.972Z,101341.81
2024-03-12T13:22:01.816Z,101333.03
2024-03-12T13:24:30.967Z,101331.53
2024-03-12T13:26:59.280Z,101342.84
2024-03-12T13:29:26.435Z,101337.78
2024-03-12T13:31:54.262Z,101341.72
2024-03-12T13:34:21.030Z,101351.38
2024-03-12T13:36:48.981Z,101344.66
2024-03-12T13:39:16.564Z,101343.88
2024-03-12T13:41:43.164Z,101343.75
2024-03-12T13:44:09.694Z,101352.72
2024-03-12T13:46:37.249Z,101353.72
2024-03-12T13:49:12.942Z,101356.72
2024-03-12T13:51:40.439Z,101349.94
2024-03-12T13:54:09.814Z,101354.97
2024-03-12T13:56:37.727Z,101357.06
2024-03-12T13:59:07.835Z,101352.63
2024-03-12T14:01:34.499Z,101356.81
2024-03-12T14:04:01.418Z,101353.63
2024-03-12T14:06:29.234Z,101360.31
2024-03-12T14:08:55.751Z,101361.94
2024-03-12T14:11:22.457Z,101371.28
2024-03-12T14:13:50.960Z,101376.69
2024-03-12T14:16:19.827Z,101373.34
2024-03-12T14:18:50.608Z,101374.44
2024-03-12T14:21:17.566Z,101378.50
2024-03-12T14:23:43.984Z,101378.03
2024-03-12T14:26:10.444Z,101374.41
2024-03-12T14:28:36.896Z,101380.69
2024-03-12T14:31:03.981Z,101371.94
2024-03-12T14:33:30.617Z,101374.97
2024-03-12T14:35:57.052Z,101372.03
2024-03-12T14:38:24.055Z,101374.94
2024-03-12T14:40:50.826Z,101374.38
2024-03-12T14:43:17.397Z,101374.53
2024-03-12T14:45:47.265Z,101375.28
2024-03-12T14:48:14.365Z,101369.25
2024-03-12T14:50:41.018Z,101373.44
2024-03-12T14:53:09.071Z,101367.34
2024-03-12T14:55:35.778Z,101378.06
2024-03-12T14:58:02.354Z,101378.75
2024-03-12T15:00:29.816Z,101382.25
2024-03-12T15:02:57.046Z,101380.28
2024-03-12T15:05:24.783Z,101384.59
2024-03-12T15:07:51.386Z,101380.44
2024-03-12T15:10:20.470Z,101379.19
2024-03-12T15:12:46.967Z,101380.56
2024-03-12T15:15:14.306Z,101386.25
2024-03-12T15:17:42.032Z,101379.88
2024-03-12T15:20:16.122Z,101381.97
2024-03-12T15:22:43.811Z,101388.09
2024-03-12T15:25:13.428Z,101389.59
2024-03-12T15:27:41.161Z,101388.03
2024-03-12T15:30:08.434Z,101387.03
2024-03-12T15:32:36.933Z,101391.16
2024-03-12T15:35:05.327Z,101394.63
2024-03-12T15:37:33.217Z,101400.56
2024-03-12T15:40:06.972Z,101399.03
2024-03-12T15:42:35.229Z,101400.25
2024-03-12T15:45:05.854Z,101401.22
2024-03-12T15:47:35.716Z,101403.59
2024-03-12T15:50:02.528Z,101404.09
2024-03-12T15:52:29.086Z,101410.16
2024-03-12T15:54:55.624Z,101402.66
2024-03-12T15:57:23.624Z,101412.03
2024-03-12T15:59:50.252Z,101409.28
2024-03-12T16:02:16.887Z,101419.66
2024-03-12T16:04:43.882Z,101412.47
2024-03-12T16:07:10.438Z,101421.88
2024-03-12T16:09:37.139Z,101415.88
2024-03-12T16:12:03.740Z,101428.50
2024-03-12T16:14:30.197Z,101419.84
2024-03-12T16:16:56.896Z,101422.03
2024-03-12T16:19:24.031Z,101420.94
2024-03-12T16:21:50.937Z,101432.50
2024-03-12T16:24:17.436Z,101431.63
2024-03-12T16:26:44.235Z,101427.47
2024-03-12T16:29:10.730Z,101424.31
2024-03-12T16:31:37.177Z,101416.88
2024-03-12T16:34:05.653Z,101431.69
2024-03-12T16:36:32.589Z,101430.19
2024-03-12T16:39:00.296Z,101425.09
2024-03-12T16:41:27.509Z,101428.94
2024-03-12T16:43:55.531Z,101421.44
2024-03-12T16:46:22.060Z,101431.41
2024-03-12T16:48:48.620Z,101425.69
2024-03-12T16:51:16.466Z,101427.47
2024-03-12T16:53:43.014Z,101438.97
2024-03-12T16:56:10.539Z,101441.59
2024-03-12T16:58:44.214Z,101443.06
2024-03-12T17:01:13.131Z,101445.56
2024-03-12T17:03:39.880Z,101452.63
2024-03-12T17:06:06.807Z,101445.72
2024-03-12T17:08:33.572Z,101446.16
2024-03-12T17:11:00.422Z,101451.91
2024-03-12T17:13:27.892Z,101453.88
2024-03-12T17:15:56.052Z,101452.78
2024-03-12T17:18:25.247Z,101456.09
2024-03-12T17:20:58.706Z,101463.03
2024-03-12T17:23:25.457Z,101457.88
2024-03-12T17:25:53.897Z,101459.50
2024-03-12T17:28:20.793Z,101462.00
2024-03-12T17:30:47.590Z,101460.47
2024-03-12T17:33:14.312Z,101464.13
2024-03-12T17:35:41.992Z,101463.91
2024-03-12T17:38:13.964Z,101468.69
2024-03-12T17:40:41.242Z,101476.38
2024-03-12T17:43:08.154Z,101462.16
2024-03-12T17:45:35.034Z,101471.75
2024-03-12T17:48:05.520Z,101472.22
2024-03-12T17:50:33.015Z,101470.81
2024-03-12T17:53:01.635Z,101477.13
2024-03-12T17:55:29.437Z,101475.16
2024-03-12T17:57:56.413Z,101470.97
2024-03-12T18:00:23.373Z,101477.34
2024-03-12T18:02:50.785Z,101477.44
2024-03-12T18:05:20.630Z,101469.19
2024-03-12T18:07:49.385Z,101473.34
2024-03-12T18:10:18.039Z,101476.69
2024-03-12T18:12:45.693Z,101469.56
2024-03-12T18:15:13.119Z,101473.41
2024-03-12T18:17:40.705Z,101475.31
2024-03-12T18:20:13.370Z,101480.56
2024-03-12T18:22:41.366Z,101486.22
2024-03-12T18:25:11.958Z,101487.38
2024-03-12T18:27:44.237Z,101481.84
2024-03-12T18:30:11.913Z,101493.00
2024-03-12T18:32:41.445Z,101502.25
2024-03-12T18:35:09.512Z,101498.09
2024-03-12T18:37:39.654Z,101498.31
2024-03-12T18:40:12.996Z,101490.56
2024-03-12T18:42:42.363Z,101497.00
2024-03-12T18:45:19.348Z,101505.47
2024-03-12T18:47:50.776Z,101499.91
2024-03-12T18:50:18.405Z,101501.81
2024-03-12T18:52:48.850Z,101498.75
2024-03-12T18:55:18.021Z,101495.25
2024-03-12T18:57:46.763Z,101502.81
2024-03-12T19:00:15.835Z,101500.44
2024-03-12T19:02:49.410Z,101497.34
2024-03-12T19:05:21.334Z,101505.13
2024-03-12T19:07:50.406Z,101500.69
2024-03-12T19:10:19.211Z,101508.16
2024-03-12T19:12:46.602Z,101511.03
2024-03-12T19:15:15.873Z,101507.47
2024-03-12T19:17:45.329Z,101504.72
2024-03-12T19:20:16.333Z,101511.41
2024-03-12T19:22:51.721Z,101506.75
2024-03-12T19:25:20.007Z,101512.16
2024-03-12T19:27:49.542Z,101511.56
2024-03-12T19:30:21.049Z,101507.13
2024-03-12T19:32:51.949Z,101508.94
2024-03-12T19:35:19.537Z,101512.63
2024-03-12T19:37:47.090Z,101512.84
2024-03-12T19:40:17.353Z,101506.75
2024-03-12T19:42:49.843Z,101509.38
2024-03-12T19:45:19.118Z,101503.66
2024-03-12T19:47:46.755Z,101507.00
2024-03-12T19:50:18.943Z,101510.00
2024-03-12T19:52:50.006Z,101508.56
2024-03-12T19:55:25.759Z,101509.91
2024-03-12T19:57:57.290Z,101510.13
2024-03-12T20:00:32.319Z,101506.56
2024-03-12T20:03:00.925Z,101506.56
2024-03-12T20:05:31.289Z,101509.75
2024-03-12T20:07:59.033Z,101503.41
2024-03-12T20:10:26.611Z,101501.16
2024-03-12T20:12:56.437Z,101505.56
2024-03-12T20:15:24.387Z,101497.94
2024-03-12T20:17:52.118Z,101501.88
2024-03-12T20:20:18.989Z,101501.88
2024-03-12T20:22:52.032Z,101503.06
2024-03-12T20:25:20.197Z,101492.78
2024-03-12T20:27:53.944Z,101495.16
2024-03-12T20:30:23.325Z,101484.91
2024-03-12T20:32:53.002Z,101487.06
2024-03-12T20:35:19.602Z,101487.78
2024-03-12T20:37:46.797Z,101486.97
2024-03-12T20:40:13.569Z,101486.97
2024-03-12T20:42:41.004Z,101487.91
2024-03-12T20:45:11.154Z,101485.16
2024-03-12T20:47:39.699Z,101489.72
2024-03-12T20:50:08.379Z,101485.28
2024-03-12T20:52:39.273Z,101486.34
2024-03-12T20:55:09.828Z,101480.84
2024-03-12T20:57:36.839Z,101479.19
2024-03-12T21:00:17.628Z,101487.19
2024-03-12T21:02:46.865Z,101485.88
2024-03-12T21:05:14.128Z,101478.25
2024-03-12T21:07:40.692Z,101479.91
2024-03-12T21:10:08.077Z,101481.34
2024-03-12T21:12:34.882Z,101480.28
2024-03-12T21:15:07.376Z,101487.44
2024-03-12T21:17:35.101Z,101492.13
2024-03-12T21:20:02.157Z,101479.19
2024-03-12T21:22:28.662Z,101480.88
2024-03-12T21:24:59.383Z,101487.94
2024-03-12T21:27:27.982Z,101481.97
2024-03-12T21:29:54.668Z,101475.28
2024-03-12T21:32:21.088Z,101478.16
2024-03-12T21:34:48.227Z,101472.91
2024-03-12T21:37:14.847Z,101475.63
2024-03-12T21:39:41.442Z,101473.25
2024-03-12T21:42:07.981Z,101477.06
2024-03-12T21:44:35.844Z,101479.22
2024-03-12T21:47:02.367Z,101475.78
2024-03-12T21:49:28.811Z,101474.34
2024-03-12T21:51:56.344Z,101473.84
2024-03-12T21:54:23.753Z,101473.38
2024-03-12T21:56:50.210Z,101465.59
2024-03-12T21:59:18.314Z,101477.91
2024-03-12T22:01:45.093Z,101476.44
2024-03-12T22:04:11.605Z,101476.09
2024-03-12T22:06:38.621Z,101477.28
2024-03-12T22:09:05.159Z,101475.25
2024-03-12T22:11:31.684Z,101481.78
2024-03-12T22:13:58.644Z,101479.78
2024-03-12T22:16:25.494Z,101469.88
2024-03-12T22:18:52.427Z,101469.47
2024-03-12T22:21:23.796Z,101473.53
2024-03-12T22:23:50.312Z,101478.63
2024-03-12T22:26:16.898Z,101478.28
2024-03-12T22:28:43.528Z,101474.44
2024-03-12T22:31:11.193Z,101476.66
2024-03-12T22:33:41.697Z,101489.28
2024-03-12T22:36:08.605Z,101486.66
2024-03-12T22:38:36.523Z,101491.19
2024-03-12T22:41:06.142Z,101483.03
2024-03-12T22:43:38.764Z,101485.72
2024-03-12T22:46:11.241Z,101496.44
2024-03-12T22:48:38.169Z,101494.16
2024-03-12T22:51:05.412Z,101495.69
2024-03-12T22:53:33.013Z,101490.19
2024-03-12T22:56:00.078Z,101492.63
2024-03-12T22:58:28.296Z,101496.63
2024-03-12T23:00:55.667Z,101493.59
2024-03-12T23:03:23.640Z,101502.94
2024-03-12T23:05:50.498Z,101501.50
2024-03-12T23:08:20.440Z,101496.25
2024-03-12T23:10:47.833Z,101494.25
2024-03-12T23:13:17.175Z,101495.31
2024-03-12T23:15:44.494Z,101501.00
2024-03-12T23:18:13.003Z,101508.50
2024-03-12T23:20:41.255Z,101508.00
2024-03-12T23:23:08.674Z,101510.19
2024-03-12T23:25:37.160Z,101509.75
2024-03-12T23:28:05.324Z,101515.19
2024-03-12T23:30:35.771Z,101500.03
2024-03-12T23:33:03.174Z,101505.13
2024-03-12T23:35:30.064Z,101507.28
2024-03-12T23:37:59.647Z,101513.47
2024-03-12T23:40:26.764Z,101519.00
2024-03-12T23:42:54.955Z,101510.63
2024-03-12T23:45:22.159Z,101508.31
2024-03-12T23:47:49.613Z,101513.00
2024-03-12T23:50:16.372Z,101509.75
2024-03-12T23:52:42.929Z,101510.16
2024-03-12T23:55:10.358Z,101513.38
2024-03-12T23:57:38.116Z,101509.25
